sensor_id;sensor_type;location;lat;lon;timestamp;pressure;altitude;pressure_sealevel;temperature;humidity
64292;BME280;50628;51.008;13.658;2024-01-30T00:00:15;101217.63;;;-0.74;100.00
64292;BME280;50628;51.008;13.658;2024-01-30T00:05:19;101215.22;;;-0.88;100.00
64292;BME280;50628;51.008;13.658;2024-01-30T00:10:20;101220.34;;;-0.88;100.00
64292;BME280;50628;51.008;13.658;2024-01-30T00:15:22;101219.38;;;-0.79;100.00
64292;BME280;50628;51.008;13.658;2024-01-30T00:20:26;101212.63;;;-0.86;100.00
64292;BME280;50628;51.008;13.658;2024-01-30T00:25:27;101217.78;;;-0.89;100.00
64292;BME280;50628;51.008;13.658;2024-01-30T00:30:29;101217.81;;;-0.94;100.00
64292;BME280;50628;51.008;13.658;2024-01-30T00:35:32;101219.56;;;-0.99;100.00
64292;BME280;50628;51.008;13.658;2024-01-30T00:40:34;101221.31;;;-1.04;100.00
64292;BME280;50628;51.008;13.658;2024-01-30T00:45:36;101222.19;;;-1.05;100.00
64292;BME280;50628;51.008;13.658;2024-01-30T00:50:39;101220.44;;;-1.01;100.00
64292;BME280;50628;51.008;13.658;2024-01-30T00:55:41;101215.47;;;-1.15;100.00
64292;BME280;50628;51.008;13.658;2024-01-30T01:00:43;101215.47;;;-1.15;100.00
64292;BME280;50628;51.008;13.658;2024-01-30T01:05:46;101216.25;;;-1.09;100.00
64292;BME280;50628;51.008;13.658;2024-01-30T01:10:48;101216.25;;;-1.09;100.00
64292;BME280;50628;51.008;13.658;2024-01-30T01:15:50;101207.72;;;-1.03;100.00
64292;BME280;50628;51.008;13.658;2024-01-30T01:20:53;101211.06;;;-1.01;100.00
64292;BME280;50628;51.008;13.658;2024-01-30T01:25:55;101210.22;;;-1.01;100.00
64292;BME280;50628;51.008;13.658;2024-01-30T01:30:57;101220.47;;;-1.03;100.00
64292;BME280;50628;51.008;13.658;2024-01-30T01:36:06;101211.94;;;-1.03;100.00
64292;BME280;50628;51.008;13.658;2024-01-30T01:41:08;101207.84;;;-1.18;100.00
64292;BME280;50628;51.008;13.658;2024-01-30T01:46:10;101215.47;;;-1.15;100.00
64292;BME280;50628;51.008;13.658;2024-01-30T01:51:14;101220.63;;;-1.18;100.00
64292;BME280;50628;51.008;13.658;2024-01-30T01:56:16;101212.13;;;-1.20;100.00
64292;BME280;50628;51.008;13.658;2024-01-30T02:01:19;101205.25;;;-1.17;100.00
64292;BME280;50628;51.008;13.658;2024-01-30T02:06:23;101209.63;;;-1.28;100.00
64292;BME280;50628;51.008;13.658;2024-01-30T02:11:25;101201.16;;;-1.33;100.00
64292;BME280;50628;51.008;13.658;2024-01-30T02:16:27;101196.06;;;-1.39;100.00
64292;BME280;50628;51.008;13.658;2024-01-30T02:21:31;101196.88;;;-1.34;100.00
64292;BME280;50628;51.008;13.658;2024-01-30T02:26:34;101192.75;;;-1.47;100.00
64292;BME280;50628;51.008;13.658;2024-01-30T02:31:36;101196.00;;;-1.30;100.00
64292;BME280;50628;51.008;13.658;2024-01-30T02:36:42;101195.25;;;-1.40;100.00
64292;BME280;50628;51.008;13.658;2024-01-30T02:41:44;101187.66;;;-1.50;100.00
64292;BME280;50628;51.008;13.658;2024-01-30T02:46:45;101183.38;;;-1.47;100.00
64292;BME280;50628;51.008;13.658;2024-01-30T02:51:49;101182.66;;;-1.64;100.00
64292;BME280;50628;51.008;13.658;2024-01-30T02:56:51;101189.44;;;-1.60;100.00
64292;BME280;50628;51.008;13.658;2024-01-30T03:01:53;101179.94;;;-1.43;100.00
64292;BME280;50628;51.008;13.658;2024-01-30T03:06:56;101179.19;;;-1.56;100.00
64292;BME280;50628;51.008;13.658;2024-01-30T03:11:58;101172.41;;;-1.58;100.00
64292;BME280;50628;51.008;13.658;2024-01-30T03:17:00;101169.84;;;-1.58;100.00
64292;BME280;50628;51.008;13.658;2024-01-30T03:22:03;101176.66;;;-1.56;100.00
64292;BME280;50628;51.008;13.658;2024-01-30T03:27:05;101174.97;;;-1.58;100.00
64292;BME280;50628;51.008;13.658;2024-01-30T03:32:07;101176.63;;;-1.53;100.00
64292;BME280;50628;51.008;13.658;2024-01-30T03:37:11;101176.59;;;-1.49;100.00
64292;BME280;50628;51.008;13.658;2024-01-30T03:42:12;101177.53;;;-1.58;100.00
64292;BME280;50628;51.008;13.658;2024-01-30T03:47:14;101180.03;;;-1.57;100.00
64292;BME280;50628;51.008;13.658;2024-01-30T03:52:17;101173.97;;;-1.42;100.00
64292;BME280;50628;51.008;13.658;2024-01-30T03:57:19;101177.44;;;-1.46;100.00
64292;BME280;50628;51.008;13.658;2024-01-30T04:02:21;101171.44;;;-1.45;100.00
64292;BME280;50628;51.008;13.658;2024-01-30T04:07:24;101176.56;;;-1.43;100.00
64292;BME280;50628;51.008;13.658;2024-01-30T04:12:26;101166.31;;;-1.40;100.00
64292;BME280;50628;51.008;13.658;2024-01-30T04:17:28;101173.09;;;-1.38;100.00
64292;BME280;50628;51.008;13.658;2024-01-30T04:22:32;101172.34;;;-1.50;100.00
64292;BME280;50628;51.008;13.658;2024-01-30T04:27:34;101166.34;;;-1.46;100.00
64292;BME280;50628;51.008;13.658;2024-01-30T04:32:36;101160.50;;;-1.56;100.00
64292;BME280;50628;51.008;13.658;2024-01-30T04:37:40;101157.16;;;-1.66;100.00
64292;BME280;50628;51.008;13.658;2024-01-30T04:42:41;101163.84;;;-1.54;100.00
64292;BME280;50628;51.008;13.658;2024-01-30T04:47:43;101168.16;;;-1.59;100.00
64292;BME280;50628;51.008;13.658;2024-01-30T04:52:48;101164.81;;;-1.66;100.00
64292;BME280;50628;51.008;13.658;2024-01-30T04:57:49;101163.13;;;-1.71;100.00
64292;BME280;50628;51.008;13.658;2024-01-30T05:02:51;101160.63;;;-1.79;100.00
64292;BME280;50628;51.008;13.658;2024-01-30T05:07:54;101156.44;;;-1.85;100.00
64292;BME280;50628;51.008;13.658;2024-01-30T05:12:56;101163.25;;;-1.87;100.00
64292;BME280;50628;51.008;13.658;2024-01-30T05:17:59;101164.06;;;-1.80;100.00
64292;BME280;50628;51.008;13.658;2024-01-30T05:23:03;101150.34;;;-1.67;100.00
64292;BME280;50628;51.008;13.658;2024-01-30T05:28:05;101153.78;;;-1.74;100.00
64292;BME280;50628;51.008;13.658;2024-01-30T05:33:07;101158.91;;;-1.76;100.00
64292;BME280;50628;51.008;13.658;2024-01-30T05:38:11;101156.34;;;-1.71;100.00
64292;BME280;50628;51.008;13.658;2024-01-30T05:43:14;101156.34;;;-1.72;100.00
64292;BME280;50628;51.008;13.658;2024-01-30T05:48:16;101159.72;;;-1.72;100.00
64292;BME280;50628;51.008;13.658;2024-01-30T05:53:19;101161.50;;;-1.80;100.00
64292;BME280;50628;51.008;13.658;2024-01-30T05:58:21;101155.50;;;-1.75;100.00
64292;BME280;50628;51.008;13.658;2024-01-30T06:03:23;101156.28;;;-1.65;100.00
64292;BME280;50628;51.008;13.658;2024-01-30T06:08:26;101146.06;;;-1.63;100.00
64292;BME280;50628;51.008;13.658;2024-01-30T06:13:28;101158.84;;;-1.65;100.00
64292;BME280;50628;51.008;13.658;2024-01-30T06:18:32;101153.69;;;-1.62;100.00
64292;BME280;50628;51.008;13.658;2024-01-30T06:23:35;101156.22;;;-1.56;100.00
64292;BME280;50628;51.008;13.658;2024-01-30T06:28:37;101144.28;;;-1.54;100.00
64292;BME280;50628;51.008;13.658;2024-01-30T06:33:39;101152.78;;;-1.55;100.00
64292;BME280;50628;51.008;13.658;2024-01-30T06:38:44;101152.03;;;-1.61;100.00
64292;BME280;50628;51.008;13.658;2024-01-30T06:43:45;101147.78;;;-1.64;100.00
64292;BME280;50628;51.008;13.658;2024-01-30T06:48:47;101144.38;;;-1.66;100.00
64292;BME280;50628;51.008;13.658;2024-01-30T06:53:50;101145.19;;;-1.61;100.00
64292;BME280;50628;51.008;13.658;2024-01-30T06:58:52;101146.03;;;-1.60;100.00
64292;BME280;50628;51.008;13.658;2024-01-30T07:03:54;101144.25;;;-1.50;100.00
64292;BME280;50628;51.008;13.658;2024-01-30T07:08:57;101150.19;;;-1.47;100.00
64292;BME280;50628;51.008;13.658;2024-01-30T07:13:59;101153.63;;;-1.53;100.00
64292;BME280;50628;51.008;13.658;2024-01-30T07:19:04;101145.88;;;-1.40;100.00
64292;BME280;50628;51.008;13.658;2024-01-30T07:24:07;101150.91;;;-1.33;100.00
64292;BME280;50628;51.008;13.658;2024-01-30T07:29:09;101150.78;;;-1.17;100.00
64292;BME280;50628;51.008;13.658;2024-01-30T07:34:11;101149.69;;;-0.96;100.00
64292;BME280;50628;51.008;13.658;2024-01-30T07:39:14;101149.66;;;-0.92;100.00
64292;BME280;50628;51.008;13.658;2024-01-30T07:44:16;101146.91;;;-0.76;100.00
64292;BME280;50628;51.008;13.658;2024-01-30T07:49:18;101139.09;;;-0.62;100.00
64292;BME280;50628;51.008;13.658;2024-01-30T07:54:21;101136.31;;;-0.46;100.00
64292;BME280;50628;51.008;13.658;2024-01-30T07:59:23;101139.44;;;-0.24;100.00
64292;BME280;50628;51.008;13.658;2024-01-30T08:04:25;101147.72;;;-0.05;100.00
64292;BME280;50628;51.008;13.658;2024-01-30T08:09:29;101138.22;;;0.05;100.00
64292;BME280;50628;51.008;13.658;2024-01-30T08:14:30;101137.03;;;0.26;100.00
64292;BME280;50628;51.008;13.658;2024-01-30T08:19:32;101133.91;;;0.60;100.00
64292;BME280;50628;51.008;13.658;2024-01-30T08:24:35;101124.88;;;0.87;100.00
64292;BME280;50628;51.008;13.658;2024-01-30T08:29:38;101127.22;;;1.01;100.00
64292;BME280;50628;51.008;13.658;2024-01-30T08:34:40;101127.69;;;1.20;100.00
64292;BME280;50628;51.008;13.658;2024-01-30T08:39:43;101127.28;;;1.41;100.00
64292;BME280;50628;51.008;13.658;2024-01-30T08:44:45;101123.41;;;1.62;100.00
64292;BME280;50628;51.008;13.658;2024-01-30T08:49:46;101129.56;;;1.92;100.00
64292;BME280;50628;51.008;13.658;2024-01-30T08:54:50;101138.25;;;2.24;100.00
64292;BME280;50628;51.008;13.658;2024-01-30T08:59:51;101142.28;;;2.70;100.00
64292;BME280;50628;51.008;13.658;2024-01-30T09:04:53;101139.13;;;2.92;100.00
64292;BME280;50628;51.008;13.658;2024-01-30T09:09:57;101149.88;;;3.08;100.00
64292;BME280;50628;51.008;13.658;2024-01-30T09:14:58;101145.94;;;3.25;100.00
64292;BME280;50628;51.008;13.658;2024-01-30T09:20:00;101151.66;;;3.65;100.00
64292;BME280;50628;51.008;13.658;2024-01-30T09:25:04;101128.91;;;3.81;100.00
64292;BME280;50628;51.008;13.658;2024-01-30T09:30:07;101134.50;;;4.22;100.00
64292;BME280;50628;51.008;13.658;2024-01-30T09:35:09;101136.31;;;4.45;100.00
64292;BME280;50628;51.008;13.658;2024-01-30T09:40:13;101130.47;;;4.66;100.00
64292;BME280;50628;51.008;13.658;2024-01-30T09:45:19;101123.91;;;5.06;100.00
64292;BME280;50628;51.008;13.658;2024-01-30T09:50:21;101122.75;;;5.38;100.00
64292;BME280;50628;51.008;13.658;2024-01-30T09:55:24;101106.28;;;5.64;100.00
64292;BME280;50628;51.008;13.658;2024-01-30T10:00:26;101110.66;;;5.84;100.00
64292;BME280;50628;51.008;13.658;2024-01-30T10:05:31;101114.63;;;5.95;100.00
64292;BME280;50628;51.008;13.658;2024-01-30T10:10:35;101110.38;;;6.14;100.00
64292;BME280;50628;51.008;13.658;2024-01-30T10:15:38;101089.81;;;6.33;100.00
64292;BME280;50628;51.008;13.658;2024-01-30T10:20:40;101086.19;;;6.58;100.00
64292;BME280;50628;51.008;13.658;2024-01-30T10:25:44;101075.97;;;6.55;100.00
64292;BME280;50628;51.008;13.658;2024-01-30T10:30:46;101069.69;;;6.81;100.00
64292;BME280;50628;51.008;13.658;2024-01-30T10:35:48;101070.78;;;6.55;100.00
64292;BME280;50628;51.008;13.658;2024-01-30T10:40:56;101061.91;;;6.81;100.00
64292;BME280;50628;51.008;13.658;2024-01-30T10:46:06;101057.41;;;7.24;100.00
64292;BME280;50628;51.008;13.658;2024-01-30T10:51:11;101041.84;;;7.43;100.00
64292;BME280;50628;51.008;13.658;2024-01-30T10:56:16;101035.56;;;7.29;100.00
64292;BME280;50628;51.008;13.658;2024-01-30T11:01:18;101037.84;;;7.35;100.00
64292;BME280;50628;51.008;13.658;2024-01-30T11:06:23;101030.72;;;7.03;100.00
64292;BME280;50628;51.008;13.658;2024-01-30T11:11:26;101020.50;;;7.00;100.00
64292;BME280;50628;51.008;13.658;2024-01-30T11:16:31;101018.56;;;6.86;100.00
64292;BME280;50628;51.008;13.658;2024-01-30T11:21:41;101022.16;;;6.42;100.00
64292;BME280;50628;51.008;13.658;2024-01-30T11:26:44;101014.09;;;6.29;100.00
64292;BME280;50628;51.008;13.658;2024-01-30T11:31:53;101007.75;;;6.37;100.00
64292;BME280;50628;51.008;13.658;2024-01-30T11:36:56;101012.16;;;6.35;100.00
64292;BME280;50628;51.008;13.658;2024-01-30T11:42:01;101022.13;;;6.23;100.00
64292;BME280;50628;51.008;13.658;2024-01-30T11:47:05;101018.69;;;6.23;100.00
64292;BME280;50628;51.008;13.658;2024-01-30T11:52:08;101016.81;;;6.06;100.00
64292;BME280;50628;51.008;13.658;2024-01-30T11:57:11;101015.66;;;6.13;100.00
64292;BME280;50628;51.008;13.658;2024-01-30T12:02:15;101005.56;;;6.48;100.00
64292;BME280;50628;51.008;13.658;2024-01-30T12:07:18;101008.72;;;6.34;100.00
64292;BME280;50628;51.008;13.658;2024-01-30T12:12:23;101005.59;;;6.27;100.00
64292;BME280;50628;51.008;13.658;2024-01-30T12:17:28;100994.50;;;6.44;100.00
64292;BME280;50628;51.008;13.658;2024-01-30T12:22:30;100994.91;;;6.75;100.00
64292;BME280;50628;51.008;13.658;2024-01-30T12:27:33;100991.28;;;6.79;100.00
64292;BME280;50628;51.008;13.658;2024-01-30T12:32:35;100993.47;;;6.67;100.00
64292;BME280;50628;51.008;13.658;2024-01-30T12:37:38;100994.69;;;6.79;100.00
64292;BME280;50628;51.008;13.658;2024-01-30T12:42:41;100985.25;;;6.39;100.00
64292;BME280;50628;51.008;13.658;2024-01-30T12:47:43;100983.41;;;6.61;100.00
64292;BME280;50628;51.008;13.658;2024-01-30T12:52:45;100977.59;;;6.56;100.00
64292;BME280;50628;51.008;13.658;2024-01-30T12:57:49;100976.22;;;6.68;100.00
64292;BME280;50628;51.008;13.658;2024-01-30T13:02:51;100978.81;;;6.87;100.00
64292;BME280;50628;51.008;13.658;2024-01-30T13:07:54;100978.56;;;6.93;100.00
64292;BME280;50628;51.008;13.658;2024-01-30T13:12:59;100979.31;;;7.14;100.00
64292;BME280;50628;51.008;13.658;2024-01-30T13:18:01;100971.81;;;6.70;100.00
64292;BME280;50628;51.008;13.658;2024-01-30T13:23:03;100970.00;;;6.72;100.00
64292;BME280;50628;51.008;13.658;2024-01-30T13:28:06;100966.16;;;6.62;100.00
64292;BME280;50628;51.008;13.658;2024-01-30T13:33:08;100965.78;;;7.07;100.00
64292;BME280;50628;51.008;13.658;2024-01-30T13:38:10;100950.00;;;6.94;100.00
64292;BME280;50628;51.008;13.658;2024-01-30T13:43:13;100958.84;;;7.27;100.00
64292;BME280;50628;51.008;13.658;2024-01-30T13:48:16;100951.13;;;6.89;100.00
64292;BME280;50628;51.008;13.658;2024-01-30T13:53:18;100946.47;;;7.51;100.00
64292;BME280;50628;51.008;13.658;2024-01-30T13:58:21;100945.56;;;7.52;100.00
64292;BME280;50628;51.008;13.658;2024-01-30T14:03:23;100947.44;;;7.31;100.00
64292;BME280;50628;51.008;13.658;2024-01-30T14:08:25;100949.53;;;7.23;100.00
64292;BME280;50628;51.008;13.658;2024-01-30T14:13:30;100941.50;;;7.10;100.00
64292;BME280;50628;51.008;13.658;2024-01-30T14:18:33;100947.16;;;7.37;100.00
64292;BME280;50628;51.008;13.658;2024-01-30T14:23:35;100941.41;;;6.94;100.00
64292;BME280;50628;51.008;13.658;2024-01-30T14:28:38;100948.88;;;7.00;100.00
64292;BME280;50628;51.008;13.658;2024-01-30T14:33:40;100946.34;;;6.80;100.00
64292;BME280;50628;51.008;13.658;2024-01-30T14:38:42;100939.31;;;6.83;100.00
64292;BME280;50628;51.008;13.658;2024-01-30T14:43:46;100949.84;;;6.41;100.00
64292;BME280;50628;51.008;13.658;2024-01-30T14:48:48;100946.66;;;5.93;100.00
64292;BME280;50628;51.008;13.658;2024-01-30T14:53:51;100954.78;;;6.06;100.00
64292;BME280;50628;51.008;13.658;2024-01-30T14:58:55;100941.72;;;6.09;100.00
64292;BME280;50628;51.008;13.658;2024-01-30T15:03:57;100940.75;;;6.12;100.00
64292;BME280;50628;51.008;13.658;2024-01-30T15:08:59;100942.19;;;5.98;100.00
64292;BME280;50628;51.008;13.658;2024-01-30T15:14:02;100950.44;;;6.06;100.00
64292;BME280;50628;51.008;13.658;2024-01-30T15:19:04;100948.84;;;5.82;100.00
64292;BME280;50628;51.008;13.658;2024-01-30T15:24:07;100943.34;;;5.05;100.00
64292;BME280;50628;51.008;13.658;2024-01-30T15:29:10;100944.44;;;4.75;100.00
64292;BME280;50628;51.008;13.658;2024-01-30T15:34:12;100945.66;;;4.65;100.00
64292;BME280;50628;51.008;13.658;2024-01-30T15:39:14;100937.81;;;4.45;100.00
64292;BME280;50628;51.008;13.658;2024-01-30T15:44:19;100947.31;;;4.19;100.00
64292;BME280;50628;51.008;13.658;2024-01-30T15:49:21;100948.44;;;4.36;100.00
64292;BME280;50628;51.008;13.658;2024-01-30T15:54:23;100965.00;;;4.53;100.00
64292;BME280;50628;51.008;13.658;2024-01-30T15:59:26;100961.69;;;4.01;100.00
64292;BME280;50628;51.008;13.658;2024-01-30T16:04:28;100968.19;;;4.11;100.00
64292;BME280;50628;51.008;13.658;2024-01-30T16:09:30;100981.16;;;3.83;100.00
64292;BME280;50628;51.008;13.658;2024-01-30T16:14:34;100969.91;;;3.59;100.00
64292;BME280;50628;51.008;13.658;2024-01-30T16:19:36;100979.84;;;3.43;100.00
64292;BME280;50628;51.008;13.658;2024-01-30T16:24:38;100975.75;;;3.64;100.00
64292;BME280;50628;51.008;13.658;2024-01-30T16:29:42;100984.97;;;3.98;100.00
64292;BME280;50628;51.008;13.658;2024-01-30T16:34:43;100983.56;;;3.63;100.00
64292;BME280;50628;51.008;13.658;2024-01-30T16:39:46;100990.66;;;2.98;100.00
64292;BME280;50628;51.008;13.658;2024-01-30T16:44:49;100995.94;;;2.92;100.00
64292;BME280;50628;51.008;13.658;2024-01-30T16:49:51;100999.34;;;2.63;100.00
64292;BME280;50628;51.008;13.658;2024-01-30T16:54:53;100993.59;;;2.85;100.00
64292;BME280;50628;51.008;13.658;2024-01-30T16:59:56;101010.78;;;3.14;100.00
64292;BME280;50628;51.008;13.658;2024-01-30T17:04:58;101007.66;;;3.60;100.00
64292;BME280;50628;51.008;13.658;2024-01-30T17:10:00;101004.28;;;3.58;100.00
64292;BME280;50628;51.008;13.658;2024-01-30T17:15:04;101011.16;;;3.30;100.00
64292;BME280;50628;51.008;13.658;2024-01-30T17:20:07;101006.44;;;3.16;100.00
64292;BME280;50628;51.008;13.658;2024-01-30T17:25:09;101006.47;;;3.14;100.00
64292;BME280;50628;51.008;13.658;2024-01-30T17:30:20;101003.88;;;2.55;100.00
64292;BME280;50628;51.008;13.658;2024-01-30T17:35:22;101004.75;;;2.54;100.00
64292;BME280;50628;51.008;13.658;2024-01-30T17:40:24;101006.97;;;2.66;100.00
64292;BME280;50628;51.008;13.658;2024-01-30T17:45:27;101019.72;;;2.40;100.00
64292;BME280;50628;51.008;13.658;2024-01-30T17:50:29;101000.59;;;2.50;100.00
64292;BME280;50628;51.008;13.658;2024-01-30T17:55:31;101016.03;;;2.48;100.00
64292;BME280;50628;51.008;13.658;2024-01-30T18:00:34;101023.63;;;2.53;100.00
64292;BME280;50628;51.008;13.658;2024-01-30T18:05:36;101029.69;;;2.50;100.00
64292;BME280;50628;51.008;13.658;2024-01-30T18:10:38;101023.50;;;2.57;100.00
64292;BME280;50628;51.008;13.658;2024-01-30T18:15:41;101015.50;;;2.68;100.00
64292;BME280;50628;51.008;13.658;2024-01-30T18:20:43;101021.69;;;2.61;100.00
64292;BME280;50628;51.008;13.658;2024-01-30T18:25:45;101026.81;;;2.61;100.00
64292;BME280;50628;51.008;13.658;2024-01-30T18:30:49;101025.19;;;2.58;100.00
64292;BME280;50628;51.008;13.658;2024-01-30T18:35:50;101036.25;;;2.62;100.00
64292;BME280;50628;51.008;13.658;2024-01-30T18:40:52;101032.88;;;2.60;100.00
64292;BME280;50628;51.008;13.658;2024-01-30T18:45:56;101041.19;;;2.68;100.00
64292;BME280;50628;51.008;13.658;2024-01-30T18:50:58;101040.91;;;2.48;100.00
64292;BME280;50628;51.008;13.658;2024-01-30T18:56:00;101043.78;;;2.35;100.00
64292;BME280;50628;51.008;13.658;2024-01-30T19:01:04;101038.66;;;2.34;100.00
64292;BME280;50628;51.008;13.658;2024-01-30T19:06:06;101033.50;;;2.35;100.00
64292;BME280;50628;51.008;13.658;2024-01-30T19:11:17;101036.25;;;2.29;100.00
64292;BME280;50628;51.008;13.658;2024-01-30T19:16:20;101048.50;;;2.18;100.00
64292;BME280;50628;51.008;13.658;2024-01-30T19:21:22;101048.31;;;2.26;100.00
64292;BME280;50628;51.008;13.658;2024-01-30T19:26:26;101046.69;;;2.22;100.00
64292;BME280;50628;51.008;13.658;2024-01-30T19:31:32;101046.56;;;2.26;100.00
64292;BME280;50628;51.008;13.658;2024-01-30T19:36:34;101055.88;;;2.32;100.00
64292;BME280;50628;51.008;13.658;2024-01-30T19:41:36;101073.88;;;2.30;100.00
64292;BME280;50628;51.008;13.658;2024-01-30T19:46:39;101066.69;;;2.45;100.00
64292;BME280;50628;51.008;13.658;2024-01-30T19:51:42;101070.09;;;2.45;100.00
64292;BME280;50628;51.008;13.658;2024-01-30T19:56:43;101067.72;;;2.37;100.00
64292;BME280;50628;51.008;13.658;2024-01-30T20:01:47;101076.47;;;2.30;100.00
64292;BME280;50628;51.008;13.658;2024-01-30T20:06:49;101085.81;;;2.33;100.00
64292;BME280;50628;51.008;13.658;2024-01-30T20:11:51;101089.84;;;2.42;100.00
64292;BME280;50628;51.008;13.658;2024-01-30T20:16:54;101095.78;;;2.45;100.00
64292;BME280;50628;51.008;13.658;2024-01-30T20:21:56;101098.06;;;2.56;100.00
64292;BME280;50628;51.008;13.658;2024-01-30T20:26:58;101098.38;;;2.44;100.00
64292;BME280;50628;51.008;13.658;2024-01-30T20:32:02;101093.22;;;2.45;100.00
64292;BME280;50628;51.008;13.658;2024-01-30T20:37:04;101100.00;;;2.48;100.00
64292;BME280;50628;51.008;13.658;2024-01-30T20:42:07;101105.25;;;2.43;100.00
64292;BME280;50628;51.008;13.658;2024-01-30T20:47:10;101101.69;;;2.49;100.00
64292;BME280;50628;51.008;13.658;2024-01-30T20:52:12;101108.03;;;2.68;100.00
64292;BME280;50628;51.008;13.658;2024-01-30T20:57:14;101111.41;;;2.37;100.00
64292;BME280;50628;51.008;13.658;2024-01-30T21:02:17;101101.06;;;2.39;100.00
64292;BME280;50628;51.008;13.658;2024-01-30T21:07:19;101097.91;;;2.29;100.00
64292;BME280;50628;51.008;13.658;2024-01-30T21:12:21;101106.75;;;2.16;100.00
64292;BME280;50628;51.008;13.658;2024-01-30T21:17:24;101104.13;;;2.19;100.00
64292;BME280;50628;51.008;13.658;2024-01-30T21:22:26;101108.59;;;2.11;100.00
64292;BME280;50628;51.008;13.658;2024-01-30T21:27:28;101118.84;;;2.12;100.00
64292;BME280;50628;51.008;13.658;2024-01-30T21:32:31;101114.72;;;2.05;100.00
64292;BME280;50628;51.008;13.658;2024-01-30T21:37:33;101116.47;;;2.05;100.00
64292;BME280;50628;51.008;13.658;2024-01-30T21:42:35;101120.59;;;2.10;100.00
64292;BME280;50628;51.008;13.658;2024-01-30T21:47:39;101125.91;;;2.04;100.00
64292;BME280;50628;51.008;13.658;2024-01-30T21:52:41;101124.16;;;2.05;100.00
64292;BME280;50628;51.008;13.658;2024-01-30T21:57:43;101131.03;;;2.04;100.00
64292;BME280;50628;51.008;13.658;2024-01-30T22:02:46;101132.88;;;1.98;100.00
64292;BME280;50628;51.008;13.658;2024-01-30T22:07:48;101135.56;;;1.91;100.00
64292;BME280;50628;51.008;13.658;2024-01-30T22:12:50;101131.25;;;1.93;100.00
64292;BME280;50628;51.008;13.658;2024-01-30T22:17:53;101128.03;;;1.84;100.00
64292;BME280;50628;51.008;13.658;2024-01-30T22:22:55;101128.66;;;1.97;100.00
64292;BME280;50628;51.008;13.658;2024-01-30T22:27:57;101123.63;;;1.90;100.00
64292;BME280;50628;51.008;13.658;2024-01-30T22:33:01;101124.38;;;1.95;100.00
64292;BME280;50628;51.008;13.658;2024-01-30T22:38:03;101127.13;;;1.86;100.00
64292;BME280;50628;51.008;13.658;2024-01-30T22:43:07;101133.91;;;1.89;100.00
64292;BME280;50628;51.008;13.658;2024-01-30T22:48:11;101130.50;;;1.90;100.00
64292;BME280;50628;51.008;13.658;2024-01-30T22:53:13;101137.47;;;1.83;100.00
64292;BME280;50628;51.008;13.658;2024-01-30T22:58:14;101142.66;;;1.82;100.00
64292;BME280;50628;51.008;13.658;2024-01-30T23:03:18;101145.22;;;1.82;100.00
64292;BME280;50628;51.008;13.658;2024-01-30T23:08:20;101136.91;;;1.70;100.00
64292;BME280;50628;51.008;13.658;2024-01-30T23:13:22;101152.38;;;1.67;100.00
64292;BME280;50628;51.008;13.658;2024-01-30T23:18:25;101145.56;;;1.66;100.00
64292;BME280;50628;51.008;13.658;2024-01-30T23:23:27;101159.19;;;1.68;100.00
64292;BME280;50628;51.008;13.658;2024-01-30T23:28:29;101153.03;;;1.77;100.00
64292;BME280;50628;51.008;13.658;2024-01-30T23:33:32;101149.41;;;1.86;100.00
64292;BME280;50628;51.008;13.658;2024-01-30T23:38:34;101150.19;;;1.89;100.00
64292;BME280;50628;51.008;13.658;2024-01-30T23:43:35;101149.22;;;1.95;100.00
64292;BME280;50628;51.008;13.658;2024-01-30T23:48:39;101147.72;;;1.85;100.00
64292;BME280;50628;51.008;13.658;2024-01-30T23:53:40;101158.28;;;2.10;100.00
64292;BME280;50628;51.008;13.658;2024-01-30T23:58:42;101154.25;;;2.00;100.00
